sensor_id;sensor_type;location;lat;lon;timestamp;pressure;altitude;pressure_sealevel;temperature;humidity
23303;BME280;11820;48.738;9.092;2023-02-11T00:00:20;98242.06;;;0.40;nan
23303;BME280;11820;48.738;9.092;2023-02-11T00:02:45;98248.38;;;0.48;nan
23303;BME280;11820;48.738;9.092;2023-02-11T00:05:11;98239.34;;;0.43;nan
23303;BME280;11820;48.738;9.092;2023-02-11T00:07:37;98251.25;;;0.42;nan
23303;BME280;11820;48.738;9.092;2023-02-11T00:10:03;98239.03;;;0.33;nan
23303;BME280;11820;48.738;9.092;2023-02-11T00:12:28;98246.91;;;0.44;nan
23303;BME280;11820;48.738;9.092;2023-02-11T00:14:54;98244.44;;;0.43;nan
23303;BME280;11820;48.738;9.092;2023-02-11T00:17:20;98246.50;;;0.52;nan
23303;BME280;11820;48.738;9.092;2023-02-11T00:19:51;98241.25;;;0.55;nan
23303;BME280;11820;48.738;9.092;2023-02-11T00:22:17;98249.53;;;0.43;nan
23303;BME280;11820;48.738;9.092;2023-02-11T00:24:42;98246.34;;;0.55;nan
23303;BME280;11820;48.738;9.092;2023-02-11T00:27:08;98239.84;;;0.49;nan
23303;BME280;11820;48.738;9.092;2023-02-11T00:29:33;98244.75;;;0.52;nan
23303;BME280;11820;48.738;9.092;2023-02-11T00:31:59;98240.25;;;0.57;nan
23303;BME280;11820;48.738;9.092;2023-02-11T00:34:32;98231.97;;;0.54;nan
23303;BME280;11820;48.738;9.092;2023-02-11T00:36:58;98234.75;;;0.65;nan
23303;BME280;11820;48.738;9.092;2023-02-11T00:39:23;98215.63;;;0.87;nan
23303;BME280;11820;48.738;9.092;2023-02-11T00:41:48;98213.34;;;1.12;nan
23303;BME280;11820;48.738;9.092;2023-02-11T00:44:14;98208.97;;;1.14;nan
23303;BME280;11820;48.738;9.092;2023-02-11T00:46:39;98208.13;;;1.00;nan
23303;BME280;11820;48.738;9.092;2023-02-11T00:49:04;98212.84;;;0.92;nan
23303;BME280;11820;48.738;9.092;2023-02-11T00:51:30;98203.53;;;0.77;nan
23303;BME280;11820;48.738;9.092;2023-02-11T00:53:55;98215.59;;;0.73;nan
23303;BME280;11820;48.738;9.092;2023-02-11T00:56:20;98215.34;;;0.62;nan
23303;BME280;11820;48.738;9.092;2023-02-11T00:58:46;98223.13;;;0.30;nan
23303;BME280;11820;48.738;9.092;2023-02-11T01:01:12;98222.13;;;0.32;nan
23303;BME280;11820;48.738;9.092;2023-02-11T01:03:37;98228.38;;;0.27;nan
23303;BME280;11820;48.738;9.092;2023-02-11T01:06:04;98231.31;;;0.35;nan
23303;BME280;11820;48.738;9.092;2023-02-11T01:08:29;98214.44;;;0.18;nan
23303;BME280;11820;48.738;9.092;2023-02-11T01:11:05;98216.41;;;0.29;nan
23303;BME280;11820;48.738;9.092;2023-02-11T01:13:34;98215.72;;;0.25;nan
23303;BME280;11820;48.738;9.092;2023-02-11T01:16:01;98215.16;;;0.20;nan
23303;BME280;11820;48.738;9.092;2023-02-11T01:18:27;98208.28;;;0.22;nan
23303;BME280;11820;48.738;9.092;2023-02-11T01:20:52;98198.50;;;0.30;nan
23303;BME280;11820;48.738;9.092;2023-02-11T01:23:18;98193.00;;;0.38;nan
23303;BME280;11820;48.738;9.092;2023-02-11T01:25:44;98179.53;;;0.51;nan
23303;BME280;11820;48.738;9.092;2023-02-11T01:28:18;98182.56;;;0.58;nan
23303;BME280;11820;48.738;9.092;2023-02-11T01:30:44;98183.97;;;0.32;nan
23303;BME280;11820;48.738;9.092;2023-02-11T01:33:10;98176.28;;;0.18;nan
23303;BME280;11820;48.738;9.092;2023-02-11T01:35:37;98179.56;;;0.20;nan
23303;BME280;11820;48.738;9.092;2023-02-11T01:38:02;98166.34;;;0.29;nan
23303;BME280;11820;48.738;9.092;2023-02-11T01:40:27;98172.72;;;0.36;nan
23303;BME280;11820;48.738;9.092;2023-02-11T01:42:53;98177.03;;;0.20;nan
23303;BME280;11820;48.738;9.092;2023-02-11T01:45:41;98171.66;;;0.25;nan
23303;BME280;11820;48.738;9.092;2023-02-11T01:48:12;98178.84;;;0.18;nan
23303;BME280;11820;48.738;9.092;2023-02-11T01:50:39;98176.69;;;0.11;nan
23303;BME280;11820;48.738;9.092;2023-02-11T01:53:05;98178.09;;;0.16;nan
23303;BME280;11820;48.738;9.092;2023-02-11T01:55:51;98181.28;;;0.20;nan
23303;BME280;11820;48.738;9.092;2023-02-11T01:58:38;98181.28;;;0.04;nan
23303;BME280;11820;48.738;9.092;2023-02-11T02:01:05;98170.31;;;0.04;nan
23303;BME280;11820;48.738;9.092;2023-02-11T02:03:35;98162.75;;;0.02;nan
23303;BME280;11820;48.738;9.092;2023-02-11T02:06:19;98172.09;;;0.17;nan
23303;BME280;11820;48.738;9.092;2023-02-11T02:08:54;98177.44;;;0.13;nan
23303;BME280;11820;48.738;9.092;2023-02-11T02:11:21;98169.16;;;-0.06;nan
23303;BME280;11820;48.738;9.092;2023-02-11T02:13:47;98163.41;;;0.06;nan
23303;BME280;11820;48.738;9.092;2023-02-11T02:16:15;98159.81;;;-0.05;nan
23303;BME280;11820;48.738;9.092;2023-02-11T02:19:46;98152.59;;;0.02;nan
23303;BME280;11820;48.738;9.092;2023-02-11T02:33:10;98146.84;;;-0.16;nan
23303;BME280;11820;48.738;9.092;2023-02-11T02:35:46;98141.03;;;-0.18;nan
23303;BME280;11820;48.738;9.092;2023-02-11T02:38:15;98141.00;;;-0.34;nan
23303;BME280;11820;48.738;9.092;2023-02-11T02:40:59;98132.25;;;-0.13;nan
23303;BME280;11820;48.738;9.092;2023-02-11T02:43:27;98137.00;;;-0.22;nan
23303;BME280;11820;48.738;9.092;2023-02-11T02:45:53;98136.84;;;-0.19;nan
23303;BME280;11820;48.738;9.092;2023-02-11T02:48:37;98141.28;;;-0.07;nan
23303;BME280;11820;48.738;9.092;2023-02-11T02:56:44;98132.03;;;-0.08;nan
23303;BME280;11820;48.738;9.092;2023-02-11T03:07:12;98117.41;;;-0.05;nan
23303;BME280;11820;48.738;9.092;2023-02-11T03:09:59;98115.69;;;-0.04;nan
23303;BME280;11820;48.738;9.092;2023-02-11T03:12:29;98108.13;;;0.09;nan
23303;BME280;11820;48.738;9.092;2023-02-11T03:14:56;98108.28;;;0.06;nan
23303;BME280;11820;48.738;9.092;2023-02-11T03:17:24;98109.44;;;0.16;nan
23303;BME280;11820;48.738;9.092;2023-02-11T03:19:50;98112.00;;;-0.14;nan
23303;BME280;11820;48.738;9.092;2023-02-11T03:22:19;98114.13;;;-0.07;nan
23303;BME280;11820;48.738;9.092;2023-02-11T03:24:46;98108.97;;;-0.05;nan
23303;BME280;11820;48.738;9.092;2023-02-11T03:27:33;98113.72;;;0.00;nan
23303;BME280;11820;48.738;9.092;2023-02-11T03:30:15;98113.72;;;0.00;nan
23303;BME280;11820;48.738;9.092;2023-02-11T03:32:50;98106.84;;;-0.13;nan
23303;BME280;11820;48.738;9.092;2023-02-11T03:35:22;98102.34;;;0.37;nan
23303;BME280;11820;48.738;9.092;2023-02-11T03:38:04;98091.13;;;0.55;nan
23303;BME280;11820;48.738;9.092;2023-02-11T03:40:34;98079.59;;;0.63;nan
23303;BME280;11820;48.738;9.092;2023-02-11T03:43:08;98091.56;;;0.91;nan
23303;BME280;11820;48.738;9.092;2023-02-11T03:45:37;98102.75;;;1.02;nan
23303;BME280;11820;48.738;9.092;2023-02-11T03:48:10;98092.22;;;0.94;nan
23303;BME280;11820;48.738;9.092;2023-02-11T03:50:38;98106.41;;;0.55;nan
23303;BME280;11820;48.738;9.092;2023-02-11T03:53:04;98110.34;;;0.45;nan
23303;BME280;11820;48.738;9.092;2023-02-11T03:55:33;98116.31;;;0.30;nan
23303;BME280;11820;48.738;9.092;2023-02-11T03:57:59;98124.44;;;0.05;nan
23303;BME280;11820;48.738;9.092;2023-02-11T04:00:33;98127.91;;;0.04;nan
23303;BME280;11820;48.738;9.092;2023-02-11T04:02:59;98112.78;;;0.17;nan
23303;BME280;11820;48.738;9.092;2023-02-11T04:05:24;98094.41;;;0.27;nan
23303;BME280;11820;48.738;9.092;2023-02-11T04:07:50;98089.94;;;0.60;nan
23303;BME280;11820;48.738;9.092;2023-02-11T04:10:15;98092.47;;;0.90;nan
23303;BME280;11820;48.738;9.092;2023-02-11T04:12:40;98096.94;;;1.00;nan
23303;BME280;11820;48.738;9.092;2023-02-11T04:15:06;98099.19;;;1.19;nan
23303;BME280;11820;48.738;9.092;2023-02-11T04:17:31;98111.28;;;1.01;nan
23303;BME280;11820;48.738;9.092;2023-02-11T04:19:57;98111.97;;;0.75;nan
23303;BME280;11820;48.738;9.092;2023-02-11T04:22:22;98116.34;;;0.73;nan
23303;BME280;11820;48.738;9.092;2023-02-11T04:24:47;98121.09;;;0.79;nan
23303;BME280;11820;48.738;9.092;2023-02-11T04:27:13;98124.16;;;0.84;nan
23303;BME280;11820;48.738;9.092;2023-02-11T04:29:38;98128.00;;;0.77;nan
23303;BME280;11820;48.738;9.092;2023-02-11T04:32:03;98130.69;;;1.04;nan
23303;BME280;11820;48.738;9.092;2023-02-11T04:34:29;98114.66;;;1.16;nan
23303;BME280;11820;48.738;9.092;2023-02-11T04:36:54;98120.22;;;1.08;nan
23303;BME280;11820;48.738;9.092;2023-02-11T04:39:19;98124.22;;;0.98;nan
23303;BME280;11820;48.738;9.092;2023-02-11T04:41:45;98120.19;;;0.51;nan
23303;BME280;11820;48.738;9.092;2023-02-11T04:44:10;98117.31;;;0.71;nan
23303;BME280;11820;48.738;9.092;2023-02-11T04:46:35;98110.47;;;0.87;nan
23303;BME280;11820;48.738;9.092;2023-02-11T04:49:01;98115.72;;;0.84;nan
23303;BME280;11820;48.738;9.092;2023-02-11T04:51:26;98108.00;;;0.85;nan
23303;BME280;11820;48.738;9.092;2023-02-11T04:53:52;98103.47;;;0.90;nan
23303;BME280;11820;48.738;9.092;2023-02-11T04:56:17;98109.56;;;0.88;nan
23303;BME280;11820;48.738;9.092;2023-02-11T04:58:42;98106.81;;;0.77;nan
23303;BME280;11820;48.738;9.092;2023-02-11T05:01:13;98106.28;;;0.86;nan
23303;BME280;11820;48.738;9.092;2023-02-11T05:03:39;98112.75;;;0.91;nan
23303;BME280;11820;48.738;9.092;2023-02-11T05:06:05;98110.75;;;1.10;nan
23303;BME280;11820;48.738;9.092;2023-02-11T05:08:30;98095.38;;;0.98;nan
23303;BME280;11820;48.738;9.092;2023-02-11T05:10:56;98092.94;;;0.96;nan
23303;BME280;11820;48.738;9.092;2023-02-11T05:13:21;98089.75;;;1.21;nan
23303;BME280;11820;48.738;9.092;2023-02-11T05:15:47;98093.22;;;1.34;nan
23303;BME280;11820;48.738;9.092;2023-02-11T05:18:12;98096.59;;;1.20;nan
23303;BME280;11820;48.738;9.092;2023-02-11T05:20:40;98094.94;;;1.19;nan
23303;BME280;11820;48.738;9.092;2023-02-11T05:23:05;98078.66;;;1.22;nan
23303;BME280;11820;48.738;9.092;2023-02-11T05:25:30;98062.44;;;1.37;nan
23303;BME280;11820;48.738;9.092;2023-02-11T05:27:56;98048.28;;;1.59;nan
23303;BME280;11820;48.738;9.092;2023-02-11T05:30:21;98054.47;;;1.69;nan
23303;BME280;11820;48.738;9.092;2023-02-11T05:32:46;98045.53;;;1.76;nan
23303;BME280;11820;48.738;9.092;2023-02-11T05:35:12;98035.53;;;1.73;nan
23303;BME280;11820;48.738;9.092;2023-02-11T05:37:37;98033.06;;;1.71;nan
23303;BME280;11820;48.738;9.092;2023-02-11T05:40:04;98039.03;;;1.84;nan
23303;BME280;11820;48.738;9.092;2023-02-11T05:42:29;98044.94;;;1.85;nan
23303;BME280;11820;48.738;9.092;2023-02-11T05:44:54;98047.28;;;1.88;nan
23303;BME280;11820;48.738;9.092;2023-02-11T05:47:20;98040.72;;;1.71;nan
23303;BME280;11820;48.738;9.092;2023-02-11T05:49:46;98038.22;;;1.84;nan
23303;BME280;11820;48.738;9.092;2023-02-11T05:52:11;98044.41;;;1.80;nan
23303;BME280;11820;48.738;9.092;2023-02-11T05:54:37;98039.13;;;1.83;nan
23303;BME280;11820;48.738;9.092;2023-02-11T05:57:02;98045.53;;;1.76;nan
23303;BME280;11820;48.738;9.092;2023-02-11T05:59:27;98046.34;;;1.76;nan
23303;BME280;11820;48.738;9.092;2023-02-11T06:01:52;98034.88;;;1.69;nan
23303;BME280;11820;48.738;9.092;2023-02-11T06:04:18;98036.97;;;1.77;nan
23303;BME280;11820;48.738;9.092;2023-02-11T06:06:43;98043.84;;;1.89;nan
23303;BME280;11820;48.738;9.092;2023-02-11T06:09:09;98041.63;;;1.97;nan
23303;BME280;11820;48.738;9.092;2023-02-11T06:11:35;98044.84;;;1.86;nan
23303;BME280;11820;48.738;9.092;2023-02-11T06:14:00;98050.25;;;1.82;nan
23303;BME280;11820;48.738;9.092;2023-02-11T06:16:26;98055.03;;;1.60;nan
23303;BME280;11820;48.738;9.092;2023-02-11T06:18:51;98068.13;;;1.68;nan
23303;BME280;11820;48.738;9.092;2023-02-11T06:21:16;98081.97;;;1.64;nan
23303;BME280;11820;48.738;9.092;2023-02-11T06:23:42;98084.22;;;1.68;nan
23303;BME280;11820;48.738;9.092;2023-02-11T06:26:09;98080.81;;;1.56;nan
23303;BME280;11820;48.738;9.092;2023-02-11T06:28:39;98073.25;;;1.68;nan
23303;BME280;11820;48.738;9.092;2023-02-11T06:31:05;98069.91;;;1.80;nan
23303;BME280;11820;48.738;9.092;2023-02-11T06:33:32;98068.41;;;1.90;nan
23303;BME280;11820;48.738;9.092;2023-02-11T06:35:57;98066.22;;;1.98;nan
23303;BME280;11820;48.738;9.092;2023-02-11T06:38:23;98063.19;;;2.05;nan
23303;BME280;11820;48.738;9.092;2023-02-11T06:40:48;98057.06;;;2.08;nan
23303;BME280;11820;48.738;9.092;2023-02-11T06:43:14;98053.84;;;2.18;nan
23303;BME280;11820;48.738;9.092;2023-02-11T06:45:39;98050.75;;;2.13;nan
23303;BME280;11820;48.738;9.092;2023-02-11T06:48:05;98054.66;;;2.19;nan
23303;BME280;11820;48.738;9.092;2023-02-11T06:50:30;98065.19;;;2.27;nan
23303;BME280;11820;48.738;9.092;2023-02-11T06:52:57;98069.16;;;2.31;nan
23303;BME280;11820;48.738;9.092;2023-02-11T06:55:23;98077.63;;;2.19;nan
23303;BME280;11820;48.738;9.092;2023-02-11T06:57:48;98080.03;;;2.08;nan
23303;BME280;11820;48.738;9.092;2023-02-11T07:00:14;98081.75;;;1.81;nan
23303;BME280;11820;48.738;9.092;2023-02-11T07:02:39;98076.84;;;1.78;nan
23303;BME280;11820;48.738;9.092;2023-02-11T07:05:06;98087.53;;;1.97;nan
23303;BME280;11820;48.738;9.092;2023-02-11T07:07:31;98093.16;;;2.02;nan
23303;BME280;11820;48.738;9.092;2023-02-11T07:09:57;98091.25;;;2.05;nan
23303;BME280;11820;48.738;9.092;2023-02-11T07:12:22;98090.69;;;2.00;nan
23303;BME280;11820;48.738;9.092;2023-02-11T07:14:47;98083.72;;;1.90;nan
23303;BME280;11820;48.738;9.092;2023-02-11T07:17:13;98089.50;;;2.06;nan
23303;BME280;11820;48.738;9.092;2023-02-11T07:19:38;98080.34;;;2.16;nan
23303;BME280;11820;48.738;9.092;2023-02-11T07:22:04;98082.56;;;2.08;nan
23303;BME280;11820;48.738;9.092;2023-02-11T07:24:29;98080.69;;;2.24;nan
23303;BME280;11820;48.738;9.092;2023-02-11T07:26:54;98087.03;;;2.31;nan
23303;BME280;11820;48.738;9.092;2023-02-11T07:29:20;98077.16;;;2.39;nan
23303;BME280;11820;48.738;9.092;2023-02-11T07:31:45;98073.69;;;2.40;nan
23303;BME280;11820;48.738;9.092;2023-02-11T07:34:10;98067.16;;;2.48;nan
23303;BME280;11820;48.738;9.092;2023-02-11T07:36:36;98071.06;;;2.54;nan
23303;BME280;11820;48.738;9.092;2023-02-11T07:39:01;98081.91;;;2.57;nan
23303;BME280;11820;48.738;9.092;2023-02-11T07:41:27;98092.31;;;2.67;nan
23303;BME280;11820;48.738;9.092;2023-02-11T07:43:52;98102.94;;;2.73;nan
23303;BME280;11820;48.738;9.092;2023-02-11T07:46:20;98099.91;;;2.81;nan
23303;BME280;11820;48.738;9.092;2023-02-11T07:48:47;98097.84;;;2.86;nan
23303;BME280;11820;48.738;9.092;2023-02-11T07:51:20;98100.91;;;2.91;nan
23303;BME280;11820;48.738;9.092;2023-02-11T07:53:46;98094.16;;;2.90;nan
23303;BME280;11820;48.738;9.092;2023-02-11T07:56:13;98090.09;;;2.87;nan
23303;BME280;11820;48.738;9.092;2023-02-11T07:58:39;98082.53;;;2.86;nan
23303;BME280;11820;48.738;9.092;2023-02-11T08:01:08;98078.34;;;2.97;nan
23303;BME280;11820;48.738;9.092;2023-02-11T08:03:35;98069.34;;;3.04;nan
23303;BME280;11820;48.738;9.092;2023-02-11T08:06:09;98080.91;;;3.10;nan
23303;BME280;11820;48.738;9.092;2023-02-11T08:08:34;98066.19;;;3.13;nan
23303;BME280;11820;48.738;9.092;2023-02-11T08:11:11;98063.00;;;3.10;nan
23303;BME280;11820;48.738;9.092;2023-02-11T08:13:37;98062.91;;;3.23;nan
23303;BME280;11820;48.738;9.092;2023-02-11T08:16:04;98060.94;;;3.27;nan
23303;BME280;11820;48.738;9.092;2023-02-11T08:18:30;98064.56;;;3.24;nan
23303;BME280;11820;48.738;9.092;2023-02-11T08:20:56;98059.00;;;3.30;nan
23303;BME280;11820;48.738;9.092;2023-02-11T08:23:27;98056.25;;;3.33;nan
23303;BME280;11820;48.738;9.092;2023-02-11T08:25:52;98061.75;;;3.40;nan
23303;BME280;11820;48.738;9.092;2023-02-11T08:28:17;98060.53;;;3.45;nan
23303;BME280;11820;48.738;9.092;2023-02-11T08:30:43;98056.69;;;3.63;nan
23303;BME280;11820;48.738;9.092;2023-02-11T08:33:08;98060.88;;;3.64;nan
23303;BME280;11820;48.738;9.092;2023-02-11T08:35:34;98065.47;;;3.72;nan
23303;BME280;11820;48.738;9.092;2023-02-11T08:38:00;98065.91;;;3.89;nan
23303;BME280;11820;48.738;9.092;2023-02-11T08:40:25;98075.38;;;4.00;nan
23303;BME280;11820;48.738;9.092;2023-02-11T08:42:51;98076.63;;;3.94;nan
23303;BME280;11820;48.738;9.092;2023-02-11T08:45:16;98077.84;;;4.01;nan
23303;BME280;11820;48.738;9.092;2023-02-11T08:47:41;98074.75;;;4.09;nan
23303;BME280;11820;48.738;9.092;2023-02-11T08:50:07;98075.75;;;4.30;nan
23303;BME280;11820;48.738;9.092;2023-02-11T08:52:32;98076.25;;;4.35;nan
23303;BME280;11820;48.738;9.092;2023-02-11T08:54:57;98067.66;;;4.36;nan
23303;BME280;11820;48.738;9.092;2023-02-11T08:57:23;98063.31;;;4.25;nan
23303;BME280;11820;48.738;9.092;2023-02-11T08:59:48;98062.03;;;4.31;nan
23303;BME280;11820;48.738;9.092;2023-02-11T09:02:14;98059.03;;;4.37;nan
23303;BME280;11820;48.738;9.092;2023-02-11T09:04:39;98062.25;;;4.51;nan
23303;BME280;11820;48.738;9.092;2023-02-11T09:07:05;98057.97;;;4.63;nan
23303;BME280;11820;48.738;9.092;2023-02-11T09:09:31;98063.31;;;4.60;nan
23303;BME280;11820;48.738;9.092;2023-02-11T09:11:56;98068.28;;;4.50;nan
23303;BME280;11820;48.738;9.092;2023-02-11T09:14:26;98068.06;;;4.53;nan
23303;BME280;11820;48.738;9.092;2023-02-11T09:16:52;98074.03;;;4.65;nan
23303;BME280;11820;48.738;9.092;2023-02-11T09:19:18;98076.97;;;4.82;nan
23303;BME280;11820;48.738;9.092;2023-02-11T09:21:43;98064.69;;;5.09;nan
23303;BME280;11820;48.738;9.092;2023-02-11T09:24:09;98059.56;;;5.31;nan
23303;BME280;11820;48.738;9.092;2023-02-11T09:26:35;98051.06;;;5.41;nan
23303;BME280;11820;48.738;9.092;2023-02-11T09:29:02;98061.75;;;5.35;nan
23303;BME280;11820;48.738;9.092;2023-02-11T09:31:29;98070.88;;;5.39;nan
23303;BME280;11820;48.738;9.092;2023-02-11T09:34:03;98071.22;;;5.24;nan
23303;BME280;11820;48.738;9.092;2023-02-11T09:36:32;98059.31;;;5.34;nan
23303;BME280;11820;48.738;9.092;2023-02-11T09:38:59;98056.84;;;5.32;nan
23303;BME280;11820;48.738;9.092;2023-02-11T09:44:05;98052.88;;;5.61;nan
23303;BME280;11820;48.738;9.092;2023-02-11T09:46:35;98054.16;;;5.67;nan
23303;BME280;11820;48.738;9.092;2023-02-11T09:49:01;98051.38;;;5.81;nan
23303;BME280;11820;48.738;9.092;2023-02-11T09:51:53;98058.59;;;5.87;nan
23303;BME280;11820;48.738;9.092;2023-02-11T09:54:26;98053.31;;;5.99;nan
23303;BME280;11820;48.738;9.092;2023-02-11T09:56:53;98062.94;;;6.18;nan
23303;BME280;11820;48.738;9.092;2023-02-11T09:59:18;98064.16;;;6.03;nan
23303;BME280;11820;48.738;9.092;2023-02-11T10:01:52;98051.47;;;6.22;nan
23303;BME280;11820;48.738;9.092;2023-02-11T10:10:03;98076.00;;;6.15;nan
23303;BME280;11820;48.738;9.092;2023-02-11T10:15:23;98084.16;;;6.31;nan
23303;BME280;11820;48.738;9.092;2023-02-11T10:21:26;98073.22;;;7.10;nan
23303;BME280;11820;48.738;9.092;2023-02-11T10:23:35;98072.06;;;7.24;nan
23303;BME280;11820;48.738;9.092;2023-02-11T10:26:01;98069.16;;;7.47;nan
23303;BME280;11820;48.738;9.092;2023-02-11T10:28:33;98059.50;;;7.70;nan
23303;BME280;11820;48.738;9.092;2023-02-11T10:31:01;98064.97;;;7.95;nan
23303;BME280;11820;48.738;9.092;2023-02-11T10:36:27;98068.03;;;8.76;nan
23303;BME280;11820;48.738;9.092;2023-02-11T10:38:53;98051.44;;;13.45;nan
23303;BME280;11820;48.738;9.092;2023-02-11T10:41:26;98036.09;;;17.21;nan
23303;BME280;11820;48.738;9.092;2023-02-11T10:43:52;98041.59;;;18.00;nan
23303;BME280;11820;48.738;9.092;2023-02-11T10:46:21;98027.69;;;19.25;nan
23303;BME280;11820;48.738;9.092;2023-02-11T10:48:51;98025.88;;;18.99;nan
23303;BME280;11820;48.738;9.092;2023-02-11T10:54:09;98017.81;;;17.49;nan
23303;BME280;11820;48.738;9.092;2023-02-11T10:56:50;98015.84;;;17.30;nan
23303;BME280;11820;48.738;9.092;2023-02-11T10:59:36;98013.31;;;17.36;nan
23303;BME280;11820;48.738;9.092;2023-02-11T11:02:20;98011.31;;;16.83;nan
23303;BME280;11820;48.738;9.092;2023-02-11T11:04:47;98000.94;;;15.77;nan
23303;BME280;11820;48.738;9.092;2023-02-11T11:09:55;97991.53;;;15.62;nan
23303;BME280;11820;48.738;9.092;2023-02-11T11:17:42;97991.78;;;17.34;nan
23303;BME280;11820;48.738;9.092;2023-02-11T11:22:50;97974.97;;;21.13;nan
23303;BME280;11820;48.738;9.092;2023-02-11T11:25:36;97973.16;;;23.42;nan
23303;BME280;11820;48.738;9.092;2023-02-11T11:28:03;97965.25;;;24.82;nan
23303;BME280;11820;48.738;9.092;2023-02-11T11:30:38;97959.59;;;27.03;nan
23303;BME280;11820;48.738;9.092;2023-02-11T11:33:18;97968.06;;;27.31;nan
23303;BME280;11820;48.738;9.092;2023-02-11T11:35:56;97961.03;;;29.33;nan
23303;BME280;11820;48.738;9.092;2023-02-11T11:38:23;97967.03;;;27.89;nan
23303;BME280;11820;48.738;9.092;2023-02-11T11:41:25;97955.91;;;30.19;nan
23303;BME280;11820;48.738;9.092;2023-02-11T11:46:41;97961.22;;;28.07;nan
23303;BME280;11820;48.738;9.092;2023-02-11T11:49:13;97970.69;;;25.25;nan
23303;BME280;11820;48.738;9.092;2023-02-11T11:51:44;97968.16;;;22.25;nan
23303;BME280;11820;48.738;9.092;2023-02-11T11:54:14;97963.47;;;20.59;nan
23303;BME280;11820;48.738;9.092;2023-02-11T11:56:52;97969.44;;;19.67;nan
23303;BME280;11820;48.738;9.092;2023-02-11T11:59:20;97969.94;;;20.87;nan
23303;BME280;11820;48.738;9.092;2023-02-11T12:01:51;97955.59;;;25.09;nan
23303;BME280;11820;48.738;9.092;2023-02-11T12:04:42;97965.78;;;24.84;nan
23303;BME280;11820;48.738;9.092;2023-02-11T12:07:31;97966.22;;;22.61;nan
23303;BME280;11820;48.738;9.092;2023-02-11T12:13:27;97969.91;;;18.08;nan
23303;BME280;11820;48.738;9.092;2023-02-11T12:16:14;97976.03;;;16.73;nan
23303;BME280;11820;48.738;9.092;2023-02-11T12:21:55;97979.34;;;16.60;nan
23303;BME280;11820;48.738;9.092;2023-02-11T12:27:18;97980.38;;;15.10;nan
23303;BME280;11820;48.738;9.092;2023-02-11T12:32:46;97976.34;;;16.01;nan
23303;BME280;11820;48.738;9.092;2023-02-11T12:35:31;97966.91;;;16.62;nan
23303;BME280;11820;48.738;9.092;2023-02-11T12:41:16;97979.88;;;15.93;nan
23303;BME280;11820;48.738;9.092;2023-02-11T12:44:05;97977.53;;;15.34;nan
23303;BME280;11820;48.738;9.092;2023-02-11T12:46:35;97977.19;;;16.43;nan
23303;BME280;11820;48.738;9.092;2023-02-11T12:49:15;97977.28;;;15.29;nan
23303;BME280;11820;48.738;9.092;2023-02-11T12:54:32;97971.41;;;15.27;nan
23303;BME280;11820;48.738;9.092;2023-02-11T12:57:09;97984.94;;;14.20;nan
23303;BME280;11820;48.738;9.092;2023-02-11T12:59:43;97976.75;;;14.00;nan
23303;BME280;11820;48.738;9.092;2023-02-11T13:04:51;97982.59;;;13.41;nan
23303;BME280;11820;48.738;9.092;2023-02-11T13:07:27;97992.19;;;13.25;nan
23303;BME280;11820;48.738;9.092;2023-02-11T13:11:08;97981.75;;;13.79;nan
23303;BME280;11820;48.738;9.092;2023-02-11T13:13:32;97972.25;;;13.94;nan
23303;BME280;11820;48.738;9.092;2023-02-11T13:16:02;97959.88;;;14.19;nan
23303;BME280;11820;48.738;9.092;2023-02-11T13:18:55;97958.56;;;14.45;nan
23303;BME280;11820;48.738;9.092;2023-02-11T13:21:37;97954.53;;;14.57;nan
23303;BME280;11820;48.738;9.092;2023-02-11T13:24:45;97955.31;;;14.43;nan
23303;BME280;11820;48.738;9.092;2023-02-11T13:27:47;97954.34;;;14.44;nan
23303;BME280;11820;48.738;9.092;2023-02-11T13:30:29;97949.25;;;14.28;nan
23303;BME280;11820;48.738;9.092;2023-02-11T13:38:03;97950.75;;;15.40;nan
23303;BME280;11820;48.738;9.092;2023-02-11T13:40:38;97941.91;;;15.12;nan
23303;BME280;11820;48.738;9.092;2023-02-11T13:43:06;97953.13;;;14.32;nan
23303;BME280;11820;48.738;9.092;2023-02-11T13:45:44;97951.94;;;14.57;nan
23303;BME280;11820;48.738;9.092;2023-02-11T13:48:27;97955.16;;;13.92;nan
23303;BME280;11820;48.738;9.092;2023-02-11T13:51:04;97954.31;;;13.99;nan
23303;BME280;11820;48.738;9.092;2023-02-11T13:58:58;97966.22;;;13.25;nan
23303;BME280;11820;48.738;9.092;2023-02-11T14:04:32;97956.34;;;14.57;nan
23303;BME280;11820;48.738;9.092;2023-02-11T14:07:26;97935.81;;;15.05;nan
23303;BME280;11820;48.738;9.092;2023-02-11T14:13:19;97941.38;;;15.16;nan
23303;BME280;11820;48.738;9.092;2023-02-11T14:15:46;97933.47;;;15.39;nan
23303;BME280;11820;48.738;9.092;2023-02-11T14:37:51;97961.13;;;14.31;nan
23303;BME280;11820;48.738;9.092;2023-02-11T14:40:24;97955.41;;;14.86;nan
23303;BME280;11820;48.738;9.092;2023-02-11T14:42:52;97952.34;;;15.12;nan
23303;BME280;11820;48.738;9.092;2023-02-11T14:45:21;97954.78;;;14.84;nan
23303;BME280;11820;48.738;9.092;2023-02-11T14:48:15;97962.38;;;14.35;nan
23303;BME280;11820;48.738;9.092;2023-02-11T14:50:48;97962.97;;;14.22;nan
23303;BME280;11820;48.738;9.092;2023-02-11T14:53:20;97957.78;;;14.73;nan
23303;BME280;11820;48.738;9.092;2023-02-11T14:55:50;97966.41;;;14.15;nan
23303;BME280;11820;48.738;9.092;2023-02-11T14:58:17;97963.72;;;14.31;nan
23303;BME280;11820;48.738;9.092;2023-02-11T15:00:58;97959.25;;;14.17;nan
23303;BME280;11820;48.738;9.092;2023-02-11T15:03:39;97970.50;;;14.17;nan
23303;BME280;11820;48.738;9.092;2023-02-11T15:06:19;97971.25;;;13.95;nan
23303;BME280;11820;48.738;9.092;2023-02-11T15:08:48;97979.53;;;13.68;nan
23303;BME280;11820;48.738;9.092;2023-02-11T15:11:18;97971.09;;;13.28;nan
23303;BME280;11820;48.738;9.092;2023-02-11T15:13:44;97975.44;;;13.43;nan
23303;BME280;11820;48.738;9.092;2023-02-11T15:16:16;97979.19;;;13.71;nan
23303;BME280;11820;48.738;9.092;2023-02-11T15:18:49;97971.09;;;13.28;nan
23303;BME280;11820;48.738;9.092;2023-02-11T15:21:30;97974.25;;;12.99;nan
23303;BME280;11820;48.738;9.092;2023-02-11T15:24:00;97978.19;;;12.64;nan
23303;BME280;11820;48.738;9.092;2023-02-11T15:26:27;97978.19;;;12.24;nan
23303;BME280;11820;48.738;9.092;2023-02-11T15:28:54;97980.34;;;11.63;nan
23303;BME280;11820;48.738;9.092;2023-02-11T15:31:22;97990.13;;;10.85;nan
23303;BME280;11820;48.738;9.092;2023-02-11T15:33:49;97989.41;;;10.49;nan
23303;BME280;11820;48.738;9.092;2023-02-11T15:36:16;97998.25;;;9.94;nan
23303;BME280;11820;48.738;9.092;2023-02-11T15:38:42;97999.69;;;9.79;nan